EAG5519 SBBR-SBCF
Flight info
| Callsign | EAG5519 |
|---|---|
| Flight time | 0h 52m |
| Altitude | 35000 |
| Route | GEPMO UZ35 REINA |
| Aircraft | A20N/M-SDE2E3FGHIRWXY/LB1 |
Departure
| Time | 2026-05-04 02:26 |
|---|---|
| Airport | Presidente Juscelino Kubitschek International Airport (SBBR) |
Arrival
| Time | 2026-05-04 03:19 |
|---|---|
| Airport | Tancredo Neves International Airport (SBCF) |
| Time | Latitude | Longitude | Altitude | Speed | Heading |
|---|---|---|---|---|---|
| 2026-05-04 02:02 | -15.87266 | -47.91846 | 3472 ft | 0 kts | 356° |
| 2026-05-04 02:13 | -15.87273 | -47.91846 | 3469 ft | 1 kts | 2° |
| 2026-05-04 02:13 | -15.87281 | -47.91846 | 3469 ft | 1 kts | 8° |
| 2026-05-04 02:14 | -15.87289 | -47.91847 | 3471 ft | 1 kts | 13° |
| 2026-05-04 02:14 | -15.87296 | -47.91849 | 3470 ft | 1 kts | 19° |
| 2026-05-04 02:14 | -15.87311 | -47.91856 | 3469 ft | 3 kts | 23° |
| 2026-05-04 02:14 | -15.87326 | -47.91863 | 3471 ft | 2 kts | 33° |
| 2026-05-04 02:15 | -15.87330 | -47.91865 | 3470 ft | 0 kts | 32° |
| 2026-05-04 02:16 | -15.87327 | -47.91860 | 3471 ft | 0 kts | 64° |
| 2026-05-04 02:17 | -15.87326 | -47.91852 | 3471 ft | 3 kts | 82° |
| 2026-05-04 02:17 | -15.87323 | -47.91812 | 3472 ft | 8 kts | 85° |
| 2026-05-04 02:17 | -15.87318 | -47.91744 | 3471 ft | 11 kts | 86° |
| 2026-05-04 02:17 | -15.87334 | -47.91678 | 3469 ft | 9 kts | 144° |
| 2026-05-04 02:18 | -15.87403 | -47.91664 | 3471 ft | 11 kts | 177° |
| 2026-05-04 02:18 | -15.87493 | -47.91657 | 3469 ft | 15 kts | 175° |
| 2026-05-04 02:18 | -15.87607 | -47.91648 | 3465 ft | 18 kts | 176° |
| 2026-05-04 02:18 | -15.87664 | -47.91645 | 3464 ft | 2 kts | 177° |
| 2026-05-04 02:19 | -15.87691 | -47.91644 | 3463 ft | 7 kts | 182° |
| 2026-05-04 02:19 | -15.87728 | -47.91684 | 3463 ft | 10 kts | 253° |
| 2026-05-04 02:19 | -15.87741 | -47.91760 | 3464 ft | 11 kts | 265° |
| 2026-05-04 02:19 | -15.87747 | -47.91847 | 3464 ft | 13 kts | 266° |
| 2026-05-04 02:20 | -15.87753 | -47.91943 | 3468 ft | 14 kts | 264° |
| 2026-05-04 02:20 | -15.87759 | -47.92038 | 3469 ft | 15 kts | 266° |
| 2026-05-04 02:20 | -15.87767 | -47.92153 | 3471 ft | 17 kts | 266° |
| 2026-05-04 02:20 | -15.87774 | -47.92277 | 3473 ft | 18 kts | 266° |
| 2026-05-04 02:21 | -15.87783 | -47.92411 | 3475 ft | 19 kts | 266° |
| 2026-05-04 02:21 | -15.87792 | -47.92552 | 3476 ft | 19 kts | 266° |
| 2026-05-04 02:21 | -15.87801 | -47.92693 | 3475 ft | 20 kts | 266° |
| 2026-05-04 02:21 | -15.87812 | -47.92840 | 3480 ft | 21 kts | 265° |
| 2026-05-04 02:22 | -15.87821 | -47.92997 | 3481 ft | 22 kts | 266° |
| 2026-05-04 02:22 | -15.87829 | -47.93130 | 3485 ft | 14 kts | 266° |
| 2026-05-04 02:22 | -15.87833 | -47.93193 | 3488 ft | 6 kts | 265° |
| 2026-05-04 02:22 | -15.87836 | -47.93230 | 3487 ft | 6 kts | 266° |
| 2026-05-04 02:23 | -15.87839 | -47.93287 | 3494 ft | 10 kts | 266° |
| 2026-05-04 02:23 | -15.87845 | -47.93370 | 3501 ft | 12 kts | 266° |
| 2026-05-04 02:23 | -15.87851 | -47.93468 | 3500 ft | 14 kts | 266° |
| 2026-05-04 02:23 | -15.87858 | -47.93574 | 3500 ft | 15 kts | 266° |
| 2026-05-04 02:24 | -15.87865 | -47.93678 | 3504 ft | 14 kts | 265° |
| 2026-05-04 02:24 | -15.87871 | -47.93779 | 3511 ft | 14 kts | 267° |
| 2026-05-04 02:24 | -15.87876 | -47.93887 | 3516 ft | 16 kts | 267° |
| 2026-05-04 02:24 | -15.87903 | -47.93977 | 3510 ft | 12 kts | 224° |
| 2026-05-04 02:25 | -15.87982 | -47.93992 | 3512 ft | 12 kts | 182° |
| 2026-05-04 02:25 | -15.88053 | -47.93989 | 3515 ft | 6 kts | 168° |
| 2026-05-04 02:25 | -15.88065 | -47.93957 | 3511 ft | 7 kts | 87° |
| 2026-05-04 02:25 | -15.88048 | -47.93713 | 3508 ft | 72 kts | 86° |
| 2026-05-04 02:26 | -15.88000 | -47.92945 | 3481 ft | 140 kts | 86° |
| 2026-05-04 02:26 | -15.87919 | -47.91751 | 3542 ft | 186 kts | 88° |
| 2026-05-04 02:26 | -15.87855 | -47.90803 | 3796 ft | 198 kts | 88° |
| 2026-05-04 02:26 | -15.87764 | -47.89442 | 4942 ft | 178 kts | 87° |
| 2026-05-04 02:27 | -15.87678 | -47.88190 | 5805 ft | 177 kts | 86° |
| 2026-05-04 02:27 | -15.87587 | -47.86851 | 6254 ft | 196 kts | 86° |
| 2026-05-04 02:27 | -15.87490 | -47.85367 | 6656 ft | 216 kts | 86° |
| 2026-05-04 02:27 | -15.87378 | -47.83710 | 6978 ft | 242 kts | 87° |
| 2026-05-04 02:28 | -15.87612 | -47.81905 | 7399 ft | 265 kts | 109° |
| 2026-05-04 02:28 | -15.88635 | -47.80310 | 8034 ft | 278 kts | 135° |
| 2026-05-04 02:28 | -15.90329 | -47.79284 | 8714 ft | 290 kts | 160° |
| 2026-05-04 02:28 | -15.92352 | -47.79064 | 8979 ft | 299 kts | 185° |
| 2026-05-04 02:29 | -15.94377 | -47.79608 | 9085 ft | 303 kts | 198° |
| 2026-05-04 02:29 | -15.96334 | -47.80433 | 9091 ft | 303 kts | 201° |
| 2026-05-04 02:29 | -15.98282 | -47.81274 | 9165 ft | 304 kts | 200° |
| 2026-05-04 02:29 | -16.00249 | -47.82061 | 9159 ft | 303 kts | 198° |
| 2026-05-04 02:30 | -16.02232 | -47.82792 | 9153 ft | 302 kts | 197° |
| 2026-05-04 02:30 | -16.04219 | -47.83491 | 9148 ft | 302 kts | 196° |
| 2026-05-04 02:30 | -16.06265 | -47.83859 | 9150 ft | 298 kts | 173° |
| 2026-05-04 02:30 | -16.08224 | -47.83290 | 9505 ft | 292 kts | 146° |
| 2026-05-04 02:31 | -16.09797 | -47.81990 | 10375 ft | 289 kts | 135° |
| 2026-05-04 02:31 | -16.11338 | -47.80535 | 10770 ft | 310 kts | 135° |
| 2026-05-04 02:31 | -16.12994 | -47.78969 | 11009 ft | 333 kts | 135° |
| 2026-05-04 02:31 | -16.14753 | -47.77330 | 11566 ft | 343 kts | 136° |
| 2026-05-04 02:32 | -16.16575 | -47.75652 | 12311 ft | 348 kts | 137° |
| 2026-05-04 02:32 | -16.18387 | -47.73991 | 13002 ft | 353 kts | 137° |
| 2026-05-04 02:32 | -16.20133 | -47.72392 | 13627 ft | 357 kts | 137° |
| 2026-05-04 02:32 | -16.22032 | -47.70653 | 14235 ft | 362 kts | 137° |
| 2026-05-04 02:33 | -16.23930 | -47.68917 | 14789 ft | 367 kts | 138° |
| 2026-05-04 02:33 | -16.25859 | -47.67152 | 15347 ft | 371 kts | 138° |
| 2026-05-04 02:33 | -16.27808 | -47.65367 | 15922 ft | 375 kts | 138° |
| 2026-05-04 02:33 | -16.29779 | -47.63562 | 16474 ft | 379 kts | 139° |
| 2026-05-04 02:34 | -16.31773 | -47.61735 | 16990 ft | 384 kts | 139° |
| 2026-05-04 02:34 | -16.33787 | -47.59889 | 17551 ft | 388 kts | 139° |
| 2026-05-04 02:34 | -16.35820 | -47.58025 | 18061 ft | 392 kts | 139° |
| 2026-05-04 02:34 | -16.37878 | -47.56138 | 18564 ft | 396 kts | 139° |
| 2026-05-04 02:35 | -16.39953 | -47.54234 | 19036 ft | 399 kts | 139° |
| 2026-05-04 02:35 | -16.42042 | -47.52317 | 19510 ft | 402 kts | 139° |
| 2026-05-04 02:35 | -16.44153 | -47.50380 | 19981 ft | 406 kts | 139° |
| 2026-05-04 02:35 | -16.46280 | -47.48427 | 20413 ft | 410 kts | 139° |
| 2026-05-04 02:36 | -16.48427 | -47.46455 | 20888 ft | 413 kts | 139° |
| 2026-05-04 02:36 | -16.50592 | -47.44467 | 21353 ft | 416 kts | 139° |
| 2026-05-04 02:36 | -16.52758 | -47.42476 | 21807 ft | 419 kts | 139° |
| 2026-05-04 02:36 | -16.54967 | -47.40446 | 22269 ft | 423 kts | 140° |
| 2026-05-04 02:37 | -16.57181 | -47.38410 | 22721 ft | 426 kts | 140° |
| 2026-05-04 02:37 | -16.59410 | -47.36359 | 23179 ft | 429 kts | 140° |
| 2026-05-04 02:37 | -16.61658 | -47.34291 | 23620 ft | 433 kts | 140° |
| 2026-05-04 02:37 | -16.63923 | -47.32206 | 24004 ft | 435 kts | 140° |
| 2026-05-04 02:38 | -16.66196 | -47.30113 | 24410 ft | 437 kts | 140° |
| 2026-05-04 02:38 | -16.68475 | -47.28013 | 24799 ft | 439 kts | 140° |
| 2026-05-04 02:38 | -16.70775 | -47.25895 | 25177 ft | 442 kts | 140° |
| 2026-05-04 02:38 | -16.73084 | -47.23766 | 25554 ft | 444 kts | 140° |
| 2026-05-04 02:39 | -16.75402 | -47.21629 | 25921 ft | 446 kts | 140° |
| 2026-05-04 02:39 | -16.77729 | -47.19483 | 26292 ft | 448 kts | 140° |
| 2026-05-04 02:39 | -16.80071 | -47.17322 | 26650 ft | 451 kts | 140° |
| 2026-05-04 02:39 | -16.82428 | -47.15146 | 27002 ft | 453 kts | 140° |
| 2026-05-04 02:40 | -16.84789 | -47.12967 | 27341 ft | 455 kts | 140° |
| 2026-05-04 02:40 | -16.87121 | -47.10783 | 27640 ft | 458 kts | 140° |
| 2026-05-04 02:40 | -16.89472 | -47.08515 | 27978 ft | 460 kts | 139° |
| 2026-05-04 02:40 | -16.91819 | -47.06231 | 28305 ft | 463 kts | 139° |
| 2026-05-04 02:41 | -16.94182 | -47.03935 | 28619 ft | 465 kts | 139° |
| 2026-05-04 02:41 | -16.96554 | -47.01637 | 28936 ft | 467 kts | 139° |
| 2026-05-04 02:41 | -16.98940 | -46.99329 | 29244 ft | 469 kts | 140° |
| 2026-05-04 02:41 | -17.01345 | -46.97006 | 29545 ft | 471 kts | 140° |
| 2026-05-04 02:42 | -17.03751 | -46.94681 | 29868 ft | 473 kts | 140° |
| 2026-05-04 02:42 | -17.06172 | -46.92341 | 30159 ft | 475 kts | 140° |
| 2026-05-04 02:42 | -17.08605 | -46.89989 | 30402 ft | 478 kts | 140° |
| 2026-05-04 02:42 | -17.11046 | -46.87629 | 30676 ft | 480 kts | 140° |
| 2026-05-04 02:43 | -17.13503 | -46.85252 | 30932 ft | 482 kts | 140° |
| 2026-05-04 02:43 | -17.15966 | -46.82867 | 31207 ft | 484 kts | 140° |
| 2026-05-04 02:43 | -17.18429 | -46.80480 | 31546 ft | 484 kts | 140° |
| 2026-05-04 02:43 | -17.20896 | -46.78077 | 31876 ft | 484 kts | 140° |
| 2026-05-04 02:44 | -17.23355 | -46.75678 | 32250 ft | 483 kts | 140° |
| 2026-05-04 02:44 | -17.25810 | -46.73282 | 32583 ft | 483 kts | 140° |
| 2026-05-04 02:44 | -17.28265 | -46.70886 | 32859 ft | 484 kts | 140° |
| 2026-05-04 02:44 | -17.30729 | -46.68483 | 33177 ft | 484 kts | 140° |
| 2026-05-04 02:45 | -17.33186 | -46.66085 | 33514 ft | 483 kts | 140° |
| 2026-05-04 02:45 | -17.35648 | -46.63681 | 33828 ft | 483 kts | 140° |
| 2026-05-04 02:45 | -17.38102 | -46.61285 | 34128 ft | 483 kts | 140° |
| 2026-05-04 02:45 | -17.40559 | -46.58884 | 34389 ft | 482 kts | 140° |
| 2026-05-04 02:46 | -17.43008 | -46.56491 | 34633 ft | 482 kts | 140° |
| 2026-05-04 02:46 | -17.45453 | -46.54101 | 34919 ft | 481 kts | 140° |
| 2026-05-04 02:46 | -17.47901 | -46.51706 | 35040 ft | 482 kts | 140° |
| 2026-05-04 02:46 | -17.50352 | -46.49308 | 35064 ft | 482 kts | 140° |
| 2026-05-04 02:47 | -17.55235 | -46.44528 | 35067 ft | 481 kts | 140° |
| 2026-05-04 02:47 | -17.60126 | -46.39736 | 35066 ft | 481 kts | 140° |
| 2026-05-04 02:48 | -17.65018 | -46.34940 | 35070 ft | 481 kts | 140° |
| 2026-05-04 02:48 | -17.69917 | -46.30132 | 35078 ft | 484 kts | 140° |
| 2026-05-04 02:49 | -17.74837 | -46.25301 | 35078 ft | 483 kts | 140° |
| 2026-05-04 02:49 | -17.79691 | -46.20529 | 35073 ft | 477 kts | 140° |
| 2026-05-04 02:50 | -17.82051 | -46.18203 | 35083 ft | 460 kts | 141° |
| 2026-05-04 02:50 | -17.84338 | -46.15947 | 35083 ft | 443 kts | 141° |
| 2026-05-04 02:50 | -17.86490 | -46.13825 | 35084 ft | 428 kts | 141° |
| 2026-05-04 02:50 | -17.88664 | -46.11685 | 35082 ft | 422 kts | 141° |
| 2026-05-04 02:51 | -17.92980 | -46.07449 | 35089 ft | 433 kts | 141° |
| 2026-05-04 02:51 | -17.97291 | -46.03200 | 35094 ft | 431 kts | 141° |
| 2026-05-04 02:52 | -18.01658 | -45.98889 | 35098 ft | 431 kts | 141° |
| 2026-05-04 02:52 | -18.05998 | -45.94603 | 35105 ft | 432 kts | 141° |
| 2026-05-04 02:53 | -18.10312 | -45.90341 | 35092 ft | 437 kts | 141° |
| 2026-05-04 02:53 | -18.14805 | -45.85902 | 35101 ft | 451 kts | 141° |
| 2026-05-04 02:54 | -18.19447 | -45.81311 | 35099 ft | 465 kts | 141° |
| 2026-05-04 02:54 | -18.24224 | -45.76578 | 35108 ft | 479 kts | 141° |
| 2026-05-04 02:55 | -18.31612 | -45.69249 | 34992 ft | 490 kts | 141° |
| 2026-05-04 02:55 | -18.34091 | -45.66786 | 34757 ft | 488 kts | 141° |
| 2026-05-04 02:56 | -18.36555 | -45.64338 | 34524 ft | 488 kts | 141° |
| 2026-05-04 02:56 | -18.39023 | -45.61886 | 34302 ft | 488 kts | 141° |
| 2026-05-04 02:56 | -18.41152 | -45.59771 | 34099 ft | 489 kts | 141° |
| 2026-05-04 02:56 | -18.43581 | -45.57260 | 33846 ft | 491 kts | 136° |
| 2026-05-04 02:57 | -18.45770 | -45.54459 | 33609 ft | 497 kts | 131° |
| 2026-05-04 02:57 | -18.47871 | -45.51561 | 33346 ft | 498 kts | 131° |
| 2026-05-04 02:57 | -18.49976 | -45.48673 | 33095 ft | 497 kts | 131° |
| 2026-05-04 02:57 | -18.52081 | -45.45791 | 32842 ft | 496 kts | 131° |
| 2026-05-04 02:58 | -18.54184 | -45.42910 | 32595 ft | 497 kts | 131° |
| 2026-05-04 02:58 | -18.56290 | -45.40023 | 32350 ft | 497 kts | 131° |
| 2026-05-04 02:58 | -18.58399 | -45.37130 | 32107 ft | 496 kts | 131° |
| 2026-05-04 02:58 | -18.60495 | -45.34252 | 31867 ft | 495 kts | 130° |
| 2026-05-04 02:59 | -18.62594 | -45.31368 | 31350 ft | 497 kts | 130° |
| 2026-05-04 02:59 | -18.64705 | -45.28470 | 30677 ft | 497 kts | 130° |
| 2026-05-04 02:59 | -18.66798 | -45.25591 | 30017 ft | 495 kts | 130° |
| 2026-05-04 02:59 | -18.68877 | -45.22734 | 29446 ft | 488 kts | 130° |
| 2026-05-04 03:00 | -18.70932 | -45.19906 | 28861 ft | 482 kts | 130° |
| 2026-05-04 03:00 | -18.72954 | -45.17123 | 28270 ft | 476 kts | 130° |
| 2026-05-04 03:00 | -18.74960 | -45.14361 | 27685 ft | 471 kts | 130° |
| 2026-05-04 03:00 | -18.76938 | -45.11634 | 27108 ft | 466 kts | 130° |
| 2026-05-04 03:01 | -18.78904 | -45.08925 | 26465 ft | 463 kts | 130° |
| 2026-05-04 03:01 | -18.80854 | -45.06235 | 25919 ft | 459 kts | 130° |
| 2026-05-04 03:01 | -18.82784 | -45.03571 | 25312 ft | 456 kts | 130° |
| 2026-05-04 03:01 | -18.84707 | -45.00918 | 24704 ft | 453 kts | 130° |
| 2026-05-04 03:02 | -18.86608 | -44.98292 | 24120 ft | 450 kts | 130° |
| 2026-05-04 03:02 | -18.88505 | -44.95673 | 23495 ft | 448 kts | 129° |
| 2026-05-04 03:02 | -18.90381 | -44.93079 | 22926 ft | 442 kts | 129° |
| 2026-05-04 03:02 | -18.92236 | -44.90513 | 22354 ft | 436 kts | 129° |
| 2026-05-04 03:03 | -18.94064 | -44.87983 | 21706 ft | 433 kts | 129° |
| 2026-05-04 03:03 | -18.95904 | -44.85438 | 20771 ft | 438 kts | 129° |
| 2026-05-04 03:03 | -18.97735 | -44.82904 | 20205 ft | 427 kts | 129° |
| 2026-05-04 03:03 | -18.99499 | -44.80457 | 19714 ft | 412 kts | 129° |
| 2026-05-04 03:04 | -19.01212 | -44.78081 | 19189 ft | 401 kts | 129° |
| 2026-05-04 03:04 | -19.02897 | -44.75746 | 18659 ft | 398 kts | 129° |
| 2026-05-04 03:04 | -19.04576 | -44.73419 | 18097 ft | 396 kts | 129° |
| 2026-05-04 03:04 | -19.06234 | -44.71120 | 17587 ft | 391 kts | 129° |
| 2026-05-04 03:05 | -19.07873 | -44.68847 | 17071 ft | 387 kts | 128° |
| 2026-05-04 03:05 | -19.09494 | -44.66596 | 16569 ft | 383 kts | 128° |
| 2026-05-04 03:05 | -19.11100 | -44.64365 | 16051 ft | 380 kts | 128° |
| 2026-05-04 03:05 | -19.12695 | -44.62148 | 15549 ft | 377 kts | 128° |
| 2026-05-04 03:06 | -19.14280 | -44.59946 | 15028 ft | 375 kts | 128° |
| 2026-05-04 03:06 | -19.15852 | -44.57759 | 14533 ft | 372 kts | 128° |
| 2026-05-04 03:06 | -19.17415 | -44.55584 | 14010 ft | 371 kts | 128° |
| 2026-05-04 03:06 | -19.18972 | -44.53418 | 13515 ft | 367 kts | 128° |
| 2026-05-04 03:07 | -19.20507 | -44.51282 | 13012 ft | 363 kts | 128° |
| 2026-05-04 03:07 | -19.22028 | -44.49165 | 12524 ft | 359 kts | 127° |
| 2026-05-04 03:07 | -19.23529 | -44.47075 | 12036 ft | 355 kts | 127° |
| 2026-05-04 03:07 | -19.25014 | -44.45007 | 11552 ft | 351 kts | 127° |
| 2026-05-04 03:08 | -19.25990 | -44.43647 | 11239 ft | 349 kts | 126° |
| 2026-05-04 03:08 | -19.27933 | -44.40938 | 10696 ft | 341 kts | 126° |
| 2026-05-04 03:08 | -19.29332 | -44.38988 | 10542 ft | 322 kts | 126° |
| 2026-05-04 03:08 | -19.30207 | -44.37768 | 10425 ft | 309 kts | 126° |
| 2026-05-04 03:09 | -19.31446 | -44.36005 | 10282 ft | 287 kts | 121° |
| 2026-05-04 03:09 | -19.32380 | -44.34226 | 10128 ft | 267 kts | 112° |
| 2026-05-04 03:09 | -19.33006 | -44.32444 | 9966 ft | 249 kts | 107° |
| 2026-05-04 03:09 | -19.33556 | -44.30722 | 9517 ft | 246 kts | 108° |
| 2026-05-04 03:10 | -19.34114 | -44.29022 | 9089 ft | 242 kts | 108° |
| 2026-05-04 03:10 | -19.34662 | -44.27363 | 8947 ft | 239 kts | 107° |
| 2026-05-04 03:10 | -19.35400 | -44.25120 | 8924 ft | 246 kts | 107° |
| 2026-05-04 03:10 | -19.35779 | -44.23968 | 8919 ft | 244 kts | 107° |
| 2026-05-04 03:11 | -19.36361 | -44.22281 | 8924 ft | 247 kts | 114° |
| 2026-05-04 03:11 | -19.37312 | -44.20756 | 8923 ft | 250 kts | 131° |
| 2026-05-04 03:11 | -19.38624 | -44.19537 | 8924 ft | 252 kts | 138° |
| 2026-05-04 03:11 | -19.40005 | -44.18396 | 8924 ft | 252 kts | 140° |
| 2026-05-04 03:12 | -19.41364 | -44.17242 | 8879 ft | 247 kts | 137° |
| 2026-05-04 03:12 | -19.42632 | -44.16090 | 8766 ft | 231 kts | 136° |
| 2026-05-04 03:12 | -19.43797 | -44.15014 | 8342 ft | 218 kts | 136° |
| 2026-05-04 03:12 | -19.44928 | -44.13966 | 7865 ft | 210 kts | 135° |
| 2026-05-04 03:13 | -19.46003 | -44.12973 | 7427 ft | 201 kts | 134° |
| 2026-05-04 03:13 | -19.47038 | -44.12013 | 7007 ft | 194 kts | 134° |
| 2026-05-04 03:13 | -19.48041 | -44.11084 | 6601 ft | 189 kts | 133° |
| 2026-05-04 03:13 | -19.49009 | -44.10187 | 6218 ft | 181 kts | 133° |
| 2026-05-04 03:14 | -19.49914 | -44.09352 | 5915 ft | 164 kts | 133° |
| 2026-05-04 03:14 | -19.50737 | -44.08588 | 5665 ft | 150 kts | 132° |
| 2026-05-04 03:14 | -19.51513 | -44.07866 | 5467 ft | 145 kts | 133° |
| 2026-05-04 03:14 | -19.52245 | -44.07189 | 5279 ft | 137 kts | 133° |
| 2026-05-04 03:15 | -19.52957 | -44.06527 | 5115 ft | 137 kts | 133° |
| 2026-05-04 03:15 | -19.53657 | -44.05879 | 4979 ft | 131 kts | 133° |
| 2026-05-04 03:15 | -19.54343 | -44.05241 | 4814 ft | 131 kts | 133° |
| 2026-05-04 03:15 | -19.55026 | -44.04608 | 4637 ft | 130 kts | 134° |
| 2026-05-04 03:16 | -19.55711 | -44.03973 | 4468 ft | 130 kts | 134° |
| 2026-05-04 03:16 | -19.56389 | -44.03345 | 4301 ft | 129 kts | 134° |
| 2026-05-04 03:16 | -19.57065 | -44.02717 | 4130 ft | 128 kts | 135° |
| 2026-05-04 03:16 | -19.57731 | -44.02101 | 3964 ft | 126 kts | 135° |
| 2026-05-04 03:17 | -19.58385 | -44.01493 | 3809 ft | 126 kts | 135° |
| 2026-05-04 03:17 | -19.59046 | -44.00880 | 3648 ft | 127 kts | 136° |
| 2026-05-04 03:17 | -19.59703 | -44.00270 | 3476 ft | 128 kts | 136° |
| 2026-05-04 03:17 | -19.60386 | -43.99623 | 3260 ft | 132 kts | 137° |
| 2026-05-04 03:18 | -19.61078 | -43.98996 | 3110 ft | 131 kts | 138° |
| 2026-05-04 03:18 | -19.61765 | -43.98353 | 2987 ft | 132 kts | 138° |
| 2026-05-04 03:18 | -19.62458 | -43.97719 | 2816 ft | 131 kts | 137° |
| 2026-05-04 03:18 | -19.63065 | -43.97159 | 2801 ft | 83 kts | 139° |
| 2026-05-04 03:19 | -19.63347 | -43.96898 | 2800 ft | 41 kts | 139° |
| 2026-05-04 03:19 | -19.63497 | -43.96759 | 2799 ft | 23 kts | 139° |
| 2026-05-04 03:19 | -19.63573 | -43.96628 | 2799 ft | 21 kts | 110° |
| 2026-05-04 03:19 | -19.63591 | -43.96577 | 2799 ft | 2 kts | 110° |
| 2026-05-04 03:20 | -19.63604 | -43.96538 | 2800 ft | 8 kts | 110° |
| 2026-05-04 03:20 | -19.63615 | -43.96507 | 2801 ft | 1 kts | 110° |
| 2026-05-04 03:20 | -19.63621 | -43.96491 | 2800 ft | 4 kts | 110° |
| 2026-05-04 03:20 | -19.63632 | -43.96459 | 2800 ft | 6 kts | 110° |
| 2026-05-04 03:21 | -19.63641 | -43.96411 | 2800 ft | 7 kts | 88° |
| 2026-05-04 03:21 | -19.63612 | -43.96372 | 2800 ft | 8 kts | 39° |
| 2026-05-04 03:21 | -19.63568 | -43.96335 | 2800 ft | 8 kts | 37° |
| 2026-05-04 03:21 | -19.63511 | -43.96303 | 2802 ft | 11 kts | 16° |
| 2026-05-04 03:22 | -19.63445 | -43.96349 | 2803 ft | 14 kts | 295° |
| 2026-05-04 03:22 | -19.63389 | -43.96445 | 2800 ft | 17 kts | 311° |
| 2026-05-04 03:22 | -19.63320 | -43.96517 | 2800 ft | 13 kts | 319° |
| 2026-05-04 03:22 | -19.63248 | -43.96583 | 2800 ft | 6 kts | 319° |
| 2026-05-04 03:23 | -19.63211 | -43.96618 | 2800 ft | 5 kts | 318° |
| 2026-05-04 03:23 | -19.63174 | -43.96653 | 2800 ft | 9 kts | 319° |
| 2026-05-04 03:23 | -19.63115 | -43.96708 | 2800 ft | 13 kts | 319° |
| 2026-05-04 03:23 | -19.63039 | -43.96776 | 2800 ft | 14 kts | 319° |
| 2026-05-04 03:24 | -19.62960 | -43.96847 | 2803 ft | 15 kts | 320° |
| 2026-05-04 03:24 | -19.62883 | -43.96918 | 2801 ft | 14 kts | 319° |
| 2026-05-04 03:24 | -19.62837 | -43.96961 | 2803 ft | 0 kts | 319° |
| 2026-05-04 03:24 | -19.62834 | -43.96968 | 2802 ft | 1 kts | 292° |
| 2026-05-04 03:25 | -19.62839 | -43.96983 | 2801 ft | 3 kts | 242° |
| 2026-05-04 03:25 | -19.62861 | -43.97010 | 2803 ft | 5 kts | 228° |
| 2026-05-04 03:25 | -19.62863 | -43.97012 | 2803 ft | 0 kts | 227° |